This is the latest recevied weather packets stored in our database for station/object KC8JWT. If no packets are shown the sender has not sent any weather packets the latest 10 day(s).
| Time | Temp. | Humidity | Pressure | Rain* | Wind** | Luminosity | Snow |
|---|---|---|---|---|---|---|---|
| 1777408253 | 24.44° C | 67% | 1013 hPa | 0 mm | - | 170 W/m² | - |
| 1777407949 | 25° C | 67% | 1013 hPa | 0 mm | - | 221 W/m² | - |
| 1777407646 | 25.56° C | 65% | 1013.1 hPa | 0 mm | - | 633 W/m² | - |
| 1777407346 | 25° C | 67% | 1013.3 hPa | 0 mm | - | 717 W/m² | - |
| 1777407041 | 26.11° C | 65% | 1013.4 hPa | 0 mm | - | 247 W/m² | - |
| 1777406737 | 26.11° C | 67% | 1013.4 hPa | 0 mm | - | 749 W/m² | - |
| 1777406432 | 26.11° C | 69% | 1013.3 hPa | 0 mm | - | 704 W/m² | - |
| 1777406131 | 25.56° C | 70% | 1013.6 hPa | 0 mm | - | 563 W/m² | - |
| 1777405827 | 25.56° C | 72% | 1013.6 hPa | 0 mm | - | 692 W/m² | - |
| 1777405524 | 25.56° C | 71% | 1013.6 hPa | 0 mm | - | 698 W/m² | - |
| 1777405222 | 25.56° C | 70% | 1013.6 hPa | 0 mm | - | 707 W/m² | - |
| 1777404919 | 25° C | 72% | 1013.8 hPa | 0 mm | - | 679 W/m² | - |
| 1777404616 | 25° C | 73% | 1013.8 hPa | 0 mm | - | 799 W/m² | - |
| 1777404312 | 25° C | 74% | 1013.8 hPa | 0 mm | - | 807 W/m² | - |
| 1777404009 | 23.89° C | 77% | 1014 hPa | 0 mm | - | 383 W/m² | - |
| 1777403704 | 23.89° C | 77% | 1013.8 hPa | 0 mm | - | 778 W/m² | - |
| 1777403402 | 23.89° C | 78% | 1014.2 hPa | 0 mm | - | 718 W/m² | - |
| 1777403097 | 23.33° C | 80% | 1014.1 hPa | 0 mm | - | 737 W/m² | - |
| 1777402794 | 22.78° C | 82% | 1014.2 hPa | 0 mm | - | 768 W/m² | - |
| 1777402490 | 22.78° C | 83% | 1014.4 hPa | 0 mm | - | 806 W/m² | - |
| 1777402187 | 23.33° C | 83% | 1014.6 hPa | 0 mm | - | 832 W/m² | - |
| 1777401882 | 22.78° C | 84% | 1014.1 hPa | 0 mm | - | 706 W/m² | - |
| 1777401581 | 22.78° C | 85% | 1014.4 hPa | 0 mm | - | 765 W/m² | - |
| 1777401278 | 22.22° C | 86% | 1014.3 hPa | 0 mm | - | 925 W/m² | - |
| 1777400973 | 21.67° C | 88% | 1014.4 hPa | 0 mm | - | 775 W/m² | - |
* Rain latest hour (hover to see other rain measurements)
** Current wind speed in m/s (hover to see current wind gust speed)